createdAt,value
2023-05-02T00:04:29.708Z,55.93
2023-05-02T00:09:15.200Z,55.80
2023-05-02T00:13:40.595Z,55.94
2023-05-02T00:18:22.803Z,55.98
2023-05-02T00:22:54.003Z,56.04
2023-05-02T00:27:36.905Z,56.74
2023-05-02T00:32:43.915Z,56.37
2023-05-02T00:37:54.281Z,56.64
2023-05-02T00:42:27.331Z,56.60
2023-05-02T00:46:52.359Z,57.10
2023-05-02T00:52:04.290Z,57.35
2023-05-02T00:56:34.512Z,57.50
2023-05-02T01:01:22.347Z,57.60
2023-05-02T01:06:08.634Z,57.53
2023-05-02T01:11:25.560Z,57.61
2023-05-02T01:16:09.657Z,57.62
2023-05-02T01:21:04.048Z,57.79
2023-05-02T01:25:56.765Z,57.81
2023-05-02T01:30:27.106Z,57.81
2023-05-02T01:35:24.810Z,57.95
2023-05-02T01:39:50.043Z,57.96
2023-05-02T01:44:42.743Z,58.11
2023-05-02T01:49:14.886Z,57.83
2023-05-02T01:54:02.658Z,57.56
2023-05-02T01:58:36.256Z,57.92
2023-05-02T02:03:34.724Z,58.12
2023-05-02T02:08:02.391Z,58.10
2023-05-02T02:12:27.063Z,57.94
2023-05-02T02:16:59.587Z,58.24
2023-05-02T02:21:59.909Z,58.56
2023-05-02T02:26:36.103Z,58.55
2023-05-02T02:31:07.031Z,58.61
2023-05-02T02:35:44.924Z,59.04
2023-05-02T02:40:18.258Z,59.09
2023-05-02T02:44:52.810Z,59.00
2023-05-02T02:49:30.831Z,59.03
2023-05-02T02:54:46.737Z,58.75
2023-05-02T02:59:42.842Z,59.05
2023-05-02T03:04:15.166Z,59.50
2023-05-02T03:09:09.642Z,59.82
2023-05-02T03:14:00.177Z,59.85
2023-05-02T03:18:37.802Z,60.61
2023-05-02T03:23:22.902Z,60.42
2023-05-02T03:28:27.341Z,60.24
2023-05-02T03:32:56.117Z,60.10
2023-05-02T03:37:20.967Z,60.48
2023-05-02T03:41:46.786Z,60.25
2023-05-02T03:46:18.887Z,60.33
2023-05-02T03:50:52.698Z,60.37
2023-05-02T03:55:40.072Z,60.46
2023-05-02T04:00:43.712Z,60.71
2023-05-02T04:05:08.719Z,60.70
2023-05-02T04:10:00.305Z,61.03
2023-05-02T04:14:50.170Z,61.39
2023-05-02T04:19:13.218Z,61.18
2023-05-02T04:24:10.931Z,61.23
2023-05-02T04:28:40.486Z,61.59
2023-05-02T04:33:05.502Z,61.60
2023-05-02T04:38:11.333Z,61.51
2023-05-02T04:42:36.987Z,61.59
2023-05-02T04:47:20.953Z,61.73
2023-05-02T04:52:15.507Z,61.90
2023-05-02T04:56:54.246Z,61.72
2023-05-02T05:02:06.888Z,61.47
2023-05-02T05:07:23.199Z,61.08
2023-05-02T05:11:57.658Z,60.79
2023-05-02T05:16:44.909Z,60.50
2023-05-02T05:21:23.902Z,60.33
2023-05-02T05:26:13.988Z,60.22
2023-05-02T05:30:42.451Z,59.93
2023-05-02T05:35:33.655Z,59.82
2023-05-02T05:40:23.611Z,59.68
2023-05-02T05:44:57.983Z,59.32
2023-05-02T05:50:07.171Z,59.27
2023-05-02T05:54:35.198Z,58.92
2023-05-02T05:58:59.816Z,58.36
2023-05-02T06:03:24.599Z,58.15
2023-05-02T06:07:57.605Z,57.59
2023-05-02T06:12:21.506Z,57.49
2023-05-02T06:16:54.406Z,56.85
2023-05-02T06:21:27.968Z,56.09
2023-05-02T06:26:06.012Z,55.04
2023-05-02T06:30:41.134Z,54.00
2023-05-02T06:35:06.138Z,53.82
2023-05-02T06:39:41.852Z,53.56
2023-05-02T06:44:20.866Z,52.06
2023-05-02T06:48:54.579Z,51.59
2023-05-02T06:53:37.023Z,51.02
2023-05-02T06:58:06.816Z,50.58
2023-05-02T07:02:58.583Z,49.27
2023-05-02T07:07:23.433Z,48.64
2023-05-02T07:11:59.382Z,47.15
2023-05-02T07:16:42.572Z,46.91
2023-05-02T07:21:07.658Z,46.70
2023-05-02T07:26:06.197Z,46.18
2023-05-02T07:30:30.421Z,45.28
2023-05-02T07:35:07.062Z,44.58
2023-05-02T07:39:33.954Z,44.43
2023-05-02T07:43:59.982Z,44.23
2023-05-02T07:48:26.125Z,43.44
2023-05-02T07:53:05.025Z,43.31
2023-05-02T07:57:28.925Z,43.47
2023-05-02T08:02:06.594Z,43.77
2023-05-02T08:06:34.364Z,43.54
2023-05-02T08:11:20.465Z,44.01
2023-05-02T08:20:44.482Z,44.64
2023-05-02T08:25:20.465Z,45.35
2023-05-02T08:30:18.405Z,45.86
2023-05-02T08:34:48.443Z,45.98
2023-05-02T08:39:23.555Z,46.36
2023-05-02T08:43:40.182Z,46.51
2023-05-02T08:48:11.176Z,46.28
2023-05-02T08:52:36.169Z,46.44
2023-05-02T08:57:07.168Z,46.47
2023-05-02T09:01:31.178Z,46.32
2023-05-02T09:05:55.154Z,44.55
2023-05-02T09:10:16.683Z,44.26
2023-05-02T09:15:08.429Z,44.56
2023-05-02T09:24:38.580Z,44.09
2023-05-02T09:29:27.519Z,42.86
2023-05-02T09:33:57.124Z,41.96
2023-05-02T09:38:39.234Z,41.90
2023-05-02T09:43:03.217Z,42.07
2023-05-02T09:47:52.574Z,41.81
2023-05-02T09:52:24.704Z,41.86
2023-05-02T10:02:01.032Z,41.51
2023-05-02T10:06:32.374Z,41.71
2023-05-02T10:10:58.412Z,41.38
2023-05-02T10:15:23.292Z,41.93
2023-05-02T10:24:53.766Z,42.32
2023-05-02T10:30:06.904Z,42.51
2023-05-02T10:34:33.812Z,42.59
2023-05-02T10:39:06.558Z,42.52
2023-05-02T10:48:49.262Z,42.70
2023-05-02T10:58:39.000Z,43.54
2023-05-02T11:03:25.560Z,43.80
2023-05-02T11:08:00.549Z,44.51
2023-05-02T11:12:51.124Z,45.57
2023-05-02T11:17:59.077Z,45.81
2023-05-02T11:22:14.581Z,46.13
2023-05-02T11:27:15.045Z,46.36
2023-05-02T11:31:42.587Z,46.46
2023-05-02T11:36:16.348Z,46.43
2023-05-02T11:40:54.243Z,46.30
2023-05-02T11:45:12.809Z,46.32
2023-05-02T11:49:43.681Z,46.10
2023-05-02T11:54:14.268Z,46.06
2023-05-02T11:58:56.022Z,46.21
2023-05-02T12:03:41.435Z,45.67
2023-05-02T12:08:07.669Z,45.36
2023-05-02T12:12:30.522Z,44.72
2023-05-02T12:16:54.439Z,45.10
2023-05-02T12:21:25.420Z,44.34
2023-05-02T12:25:53.544Z,44.35
2023-05-02T12:30:26.530Z,43.80
2023-05-02T12:34:58.651Z,43.40
2023-05-02T12:39:32.464Z,43.63
2023-05-02T12:44:35.839Z,43.63
2023-05-02T12:49:28.362Z,43.41
2023-05-02T12:54:06.671Z,43.21
2023-05-02T12:58:54.707Z,43.19
2023-05-02T13:03:32.447Z,43.18
2023-05-02T13:08:02.177Z,42.73
2023-05-02T13:12:53.695Z,42.49
2023-05-02T13:17:49.569Z,42.42
2023-05-02T13:22:31.809Z,42.06
2023-05-02T13:27:02.724Z,41.97
2023-05-02T13:36:54.365Z,42.27
2023-05-02T13:41:29.392Z,42.32
2023-05-02T13:45:55.419Z,41.93
2023-05-02T13:50:27.382Z,42.06
2023-05-02T13:54:57.153Z,42.27
2023-05-02T13:59:26.811Z,42.13
2023-05-02T14:03:49.916Z,42.12
2023-05-02T14:08:23.297Z,41.91
2023-05-02T14:12:58.764Z,41.81
2023-05-02T14:22:35.311Z,41.79
2023-05-02T14:27:06.804Z,41.83
2023-05-02T14:31:47.487Z,41.71
2023-05-02T14:36:13.509Z,41.55
2023-05-02T14:46:24.467Z,41.67
2023-05-02T14:50:46.911Z,41.69
2023-05-02T14:55:10.813Z,41.61
2023-05-02T14:59:53.708Z,41.81
2023-05-02T15:04:37.779Z,41.63
2023-05-02T15:09:02.668Z,41.70
2023-05-02T15:13:29.457Z,41.75
2023-05-02T15:17:59.249Z,41.45
2023-05-02T15:28:07.611Z,42.64
2023-05-02T15:32:31.568Z,42.91
2023-05-02T15:37:22.758Z,43.41
2023-05-02T15:42:00.910Z,43.39
2023-05-02T15:46:26.892Z,43.98
2023-05-02T15:51:10.640Z,44.62
2023-05-02T15:55:36.550Z,44.58
2023-05-02T16:00:08.492Z,44.41
2023-05-02T16:04:49.022Z,44.52
2023-05-02T16:09:33.927Z,44.23
2023-05-02T16:14:17.604Z,44.34
2023-05-02T16:18:49.919Z,44.06
2023-05-02T16:23:13.853Z,43.93
2023-05-02T16:27:44.664Z,43.54
2023-05-02T16:32:22.556Z,43.44
2023-05-02T16:37:01.826Z,43.35
2023-05-02T16:41:09.518Z,43.58
2023-05-02T16:45:49.657Z,43.95
2023-05-02T16:50:13.584Z,44.36
2023-05-02T16:55:09.596Z,44.77
2023-05-02T16:59:33.530Z,45.10
2023-05-02T17:04:13.867Z,45.37
2023-05-02T17:08:53.855Z,45.76
2023-05-02T17:13:55.261Z,46.14
2023-05-02T17:18:24.880Z,46.57
2023-05-02T17:22:59.714Z,46.79
2023-05-02T17:27:32.466Z,47.06
2023-05-02T17:31:58.463Z,47.74
2023-05-02T17:36:22.286Z,48.34
2023-05-02T17:40:47.440Z,49.01
2023-05-02T17:45:21.958Z,49.26
2023-05-02T17:49:45.217Z,49.74
2023-05-02T17:54:13.109Z,50.05
2023-05-02T18:03:37.767Z,50.92
2023-05-02T18:08:06.995Z,51.60
2023-05-02T18:12:55.677Z,51.86
2023-05-02T18:17:20.675Z,52.44
2023-05-02T18:22:00.590Z,52.63
2023-05-02T18:26:26.456Z,52.77
2023-05-02T18:30:50.944Z,53.36
2023-05-02T18:35:44.803Z,53.52
2023-05-02T18:40:19.669Z,53.44
2023-05-02T18:44:49.365Z,53.64
2023-05-02T18:49:23.050Z,53.76
2023-05-02T18:53:59.916Z,53.94
2023-05-02T18:58:34.761Z,54.16
2023-05-02T19:03:13.703Z,54.29
2023-05-02T19:07:38.439Z,54.41
2023-05-02T19:12:10.623Z,54.33
2023-05-02T19:16:37.807Z,54.54
2023-05-02T19:21:10.760Z,54.78
2023-05-02T19:25:34.660Z,54.88
2023-05-02T19:30:04.645Z,54.97
2023-05-02T19:34:39.858Z,55.00
2023-05-02T19:39:11.698Z,55.14
2023-05-02T19:43:47.381Z,55.29
2023-05-02T19:48:22.322Z,55.56
2023-05-02T19:53:13.751Z,55.92
2023-05-02T19:57:51.854Z,55.93
2023-05-02T20:02:29.733Z,55.98
2023-05-02T20:06:53.721Z,56.45
2023-05-02T20:11:51.992Z,56.82
2023-05-02T20:16:26.921Z,57.45
2023-05-02T20:21:00.086Z,57.10
2023-05-02T20:25:29.798Z,57.65
2023-05-02T20:30:04.555Z,57.90
2023-05-02T20:34:36.672Z,58.57
2023-05-02T20:39:04.676Z,60.03
2023-05-02T20:43:36.147Z,60.24
2023-05-02T20:48:05.930Z,60.69
2023-05-02T20:52:41.925Z,60.79
2023-05-02T20:57:11.944Z,61.76
2023-05-02T21:01:35.958Z,62.27
2023-05-02T21:06:05.755Z,63.57
2023-05-02T21:10:58.453Z,64.03
2023-05-02T21:15:30.138Z,64.84
2023-05-02T21:20:02.957Z,65.27
2023-05-02T21:24:31.135Z,66.45
2023-05-02T21:29:06.986Z,68.44
2023-05-02T21:33:34.898Z,68.70
2023-05-02T21:37:58.740Z,69.03
2023-05-02T21:42:26.979Z,68.79
2023-05-02T21:46:50.109Z,68.50
2023-05-02T21:51:14.360Z,69.12
2023-05-02T21:56:00.965Z,69.36
2023-05-02T22:00:24.865Z,69.23
2023-05-02T22:04:52.919Z,69.53
2023-05-02T22:09:17.405Z,69.72
2023-05-02T22:13:41.192Z,69.61
2023-05-02T22:18:05.617Z,70.03
2023-05-02T22:22:29.654Z,71.05
2023-05-02T22:26:47.439Z,71.78
2023-05-02T22:31:11.424Z,71.32
2023-05-02T22:35:41.169Z,71.70
2023-05-02T22:40:06.087Z,71.85
2023-05-02T22:44:33.768Z,71.86
2023-05-02T22:49:01.914Z,72.28
2023-05-02T22:53:24.767Z,72.22
2023-05-02T22:57:51.636Z,72.50
2023-05-02T23:02:15.638Z,72.22
2023-05-02T23:06:47.049Z,72.17
2023-05-02T23:11:13.175Z,72.20
2023-05-02T23:15:38.219Z,72.27
2023-05-02T23:20:03.361Z,72.31
2023-05-02T23:24:36.956Z,72.22
2023-05-02T23:29:01.988Z,72.20
2023-05-02T23:33:31.640Z,72.24
2023-05-02T23:38:01.328Z,72.32
2023-05-02T23:42:25.196Z,72.15
2023-05-02T23:46:49.211Z,72.22
2023-05-02T23:51:14.195Z,72.13
2023-05-02T23:55:38.189Z,72.21
